Ansac Moon Bear — 3FKS5 — position and weather

sailwx.info

Track history (hours):
 
Tides and Currents Weather Stations Pressure Air Temp Water Temp Dewpoint Dewpoint Depression Visibility Wind Speed Wind Dir Waves Ship Positions

Ansac Moon Bear

Last reported at 2017-Oct-17 22:00 UTC. Time now 2017-Oct-18 02:22 UTC.
Position N 51°48' W 144°30'.

Length 180 m; draft 10.2 m.

Type: Cargo ship. MMSI: 353751000.

Wind from 280 at 17 knots

Barometer 997.0 mb
Air temperature 11.0 ° C
Dewpoint 9.2 ° C
Water temperature 11.0 ° C

Date/timePositionNaut miles runAvg speedWind from/ knotsBaromVisibWave heightAir tempDewpointWater temp
2017-Oct-17 22:00N 51°48' W 144°30'28011.2 280 / 17997.0 11.0 9.211.0
2017-Oct-16 21:00N 49°12' W 138°24'230 9.6 310 / 141007.0 11.0 9.212.0
2017-Oct-15 21:00N 47°06' W 133°36'32811.0 230 / 131020.0 16.014.413.0
2017-Oct-14 15:08N 46°12' W 125°45'211.1
2017-Oct-14 14:59N 46°13' W 125°43'511.3
2017-Oct-14 14:31N 46°12' W 125°35'611.3
2017-Oct-14 14:00N 46°13' W 125°27'611.5
2017-Oct-14 13:30N 46°13' W 125°19'611.7
2017-Oct-14 13:00N 46°13' W 125°10'611.4
2017-Oct-14 12:31N 46°13' W 125°02'611.5
2017-Oct-14 12:01N 46°13' W 124°54'611.4
2017-Oct-14 11:30N 46°13' W 124°45'611.3
2017-Oct-14 11:01N 46°13' W 124°37'611.3
2017-Oct-14 10:31N 46°13' W 124°29'611.7
2017-Oct-14 10:01N 46°13' W 124°21'612.0
2017-Oct-14 09:31N 46°12' W 124°12'510.2
2017-Oct-14 09:01N 46°15' W 124°06'612.5
2017-Oct-14 08:31N 46°13' W 123°57'611.5
2017-Oct-14 08:00N 46°12' W 123°49'612.3
2017-Oct-14 07:30N 46°15' W 123°41'713.2
2017-Oct-14 07:01N 46°16' W 123°32'510.1
2017-Oct-14 06:30N 46°13' W 123°25'5 9.7
2017-Oct-14 06:00N 46°09' W 123°22'611.4
2017-Oct-14 05:30N 46°10' W 123°14'5 9.8
2017-Oct-14 05:00N 46°11' W 123°07'611.1
2017-Oct-14 04:27N 46°08' W 122°60'4 9.1
2017-Oct-14 04:00N 46°05' W 122°55'6 9.8
2017-Oct-14 03:21N 45°60' W 122°51'411.2
2017-Oct-14 03:01N 45°56' W 122°48'611.8
2017-Oct-14 02:30N 45°50' W 122°47'612.1
2017-Oct-14 02:00N 45°44' W 122°46'611.2
2017-Oct-14 01:30N 45°39' W 122°46'3 5.1
2017-Oct-14 01:00N 45°36' W 122°47'0 0.6
2017-Oct-14 00:13N 45°36' W 122°46'0 0.0
2017-Oct-13 23:58N 45°36' W 122°46'0 0.0
2017-Oct-13 23:28N 45°36' W 122°46'0 0.0
2017-Oct-13 22:58N 45°36' W 122°46'0 0.0
2017-Oct-13 22:28N 45°36' W 122°46'0 0.0
2017-Oct-13 21:58N 45°36' W 122°46'0 0.0
2017-Oct-13 21:13N 45°36' W 122°46'0 0.0
2017-Oct-13 20:58N 45°36' W 122°46'0 0.0
2017-Oct-13 20:28N 45°36' W 122°46'0 0.0
2017-Oct-13 19:55N 45°36' W 122°46'0 0.0
2017-Oct-13 19:28N 45°36' W 122°46'0 0.0
2017-Oct-13 18:49N 45°36' W 122°46'0 0.0
2017-Oct-13 18:19N 45°36' W 122°46'0 0.0
2017-Oct-13 17:55N 45°36' W 122°46'0 0.0
2017-Oct-13 17:10N 45°36' W 122°46'0 0.0
2017-Oct-13 16:55N 45°36' W 122°46'0 0.0
2017-Oct-13 16:25N 45°36' W 122°46'0 0.0
2017-Oct-13 15:52N 45°36' W 122°46'0 0.0
2017-Oct-13 15:28N 45°36' W 122°46'0 0.0
2017-Oct-13 14:58N 45°36' W 122°46'0 0.0
2017-Oct-13 14:22N 45°36' W 122°46'0 0.0
2017-Oct-13 13:49N 45°36' W 122°46'0 0.0
2017-Oct-13 13:28N 45°36' W 122°46'0 0.0
2017-Oct-13 12:43N 45°36' W 122°46'0 0.0
2017-Oct-13 12:28N 45°36' W 122°46'0 0.0
2017-Oct-13 11:55N 45°36' W 122°46'0 0.0
2017-Oct-13 11:28N 45°36' W 122°46'0 0.0
2017-Oct-13 10:52N 45°36' W 122°46'0 0.0
2017-Oct-13 10:28N 45°36' W 122°46'0 0.0
2017-Oct-13 09:52N 45°36' W 122°46'0 0.0
2017-Oct-13 09:01N 45°36' W 122°46'0 0.0
2017-Oct-13 08:58N 45°36' W 122°46'0 0.1
2017-Oct-13 08:13N 45°36' W 122°47'0 0.0
2017-Oct-13 07:49N 45°36' W 122°47'0 0.0
2017-Oct-13 07:22N 45°36' W 122°47'0 0.0
2017-Oct-13 06:58N 45°36' W 122°47'0 0.0
2017-Oct-13 06:22N 45°36' W 122°47'0 0.0
2017-Oct-13 05:55N 45°36' W 122°47'0 0.0
2017-Oct-13 05:31N 45°36' W 122°47'0 0.0
2017-Oct-13 04:58N 45°36' W 122°47'0 0.0
2017-Oct-13 04:28N 45°36' W 122°47'0 0.0
2017-Oct-13 03:58N 45°36' W 122°47'0 0.0
2017-Oct-13 03:27N 45°36' W 122°47'0 0.0
2017-Oct-13 02:58N 45°36' W 122°47'0 0.0
2017-Oct-13 02:19N 45°36' W 122°47'0 0.0
2017-Oct-13 01:55N 45°36' W 122°47'0 0.0
2017-Oct-13 01:31N 45°36' W 122°47'0 0.0
2017-Oct-13 00:58N 45°36' W 122°47'0 0.0
2017-Oct-13 00:28N 45°36' W 122°47'0 0.0
2017-Oct-12 23:52N 45°36' W 122°47'0 0.0
2017-Oct-12 23:22N 45°36' W 122°47'0 0.0
2017-Oct-12 22:46N 45°36' W 122°47'0 0.0
2017-Oct-12 22:28N 45°36' W 122°47'0 0.0
2017-Oct-12 22:01N 45°36' W 122°47'0 0.0
2017-Oct-12 21:28N 45°36' W 122°47'0 0.1
2017-Oct-12 20:55N 45°36' W 122°46'0 0.1
2017-Oct-12 20:28N 45°36' W 122°47'0 0.0
2017-Oct-12 20:01N 45°36' W 122°47'0 0.1
2017-Oct-12 19:25N 45°36' W 122°46'0 0.0
2017-Oct-12 19:01N 45°36' W 122°46'0 0.1
2017-Oct-12 18:31N 45°36' W 122°47'0 0.0
2017-Oct-12 17:34N 45°36' W 122°46'0 0.1
2017-Oct-12 17:31N 45°36' W 122°46'0 0.0
2017-Oct-12 16:55N 45°36' W 122°46'0 0.1
2017-Oct-12 16:31N 45°36' W 122°47'0 0.1
2017-Oct-12 15:58N 45°36' W 122°46'0 0.0
2017-Oct-12 15:31N 45°36' W 122°46'0 0.0
2017-Oct-12 14:55N 45°36' W 122°46'0 0.0
2017-Oct-12 14:28N 45°36' W 122°46'0 0.1
2017-Oct-12 13:52N 45°36' W 122°47'0 0.0
2017-Oct-12 13:18N 45°36' W 122°47'0 0.1
2017-Oct-12 12:55N 45°36' W 122°46'0 0.1
2017-Oct-12 12:31N 45°36' W 122°47'0 0.1
2017-Oct-12 11:52N 45°36' W 122°46'0 0.0
2017-Oct-12 11:30N 45°36' W 122°46'0 0.0
2017-Oct-12 10:55N 45°36' W 122°46'0 0.0
2017-Oct-12 10:27N 45°36' W 122°46'0 0.0
2017-Oct-12 09:46N 45°36' W 122°46'0 0.0
2017-Oct-12 09:27N 45°36' W 122°46'0 0.1
2017-Oct-12 08:54N 45°36' W 122°47'0 0.1
2017-Oct-12 08:25N 45°36' W 122°46'0 0.0
2017-Oct-12 07:43N 45°36' W 122°46'0 0.2
2017-Oct-12 07:30N 45°36' W 122°47'0 0.1
2017-Oct-12 06:55N 45°36' W 122°46'0 0.0
2017-Oct-12 06:30N 45°36' W 122°46'0 0.0
2017-Oct-12 06:00N 45°36' W 122°46'0 0.0
2017-Oct-12 05:25N 45°36' W 122°46'0 0.1
2017-Oct-12 04:52N 45°36' W 122°47'0 0.0
2017-Oct-12 04:31N 45°36' W 122°47'0 0.1
2017-Oct-12 03:58N 45°36' W 122°46'0 0.0
2017-Oct-12 03:30N 45°36' W 122°46'0 0.1
2017-Oct-12 02:58N 45°36' W 122°47'0 0.1
2017-Oct-12 02:30N 45°36' W 122°46'0 0.0
2017-Oct-12 01:55N 45°36' W 122°46'0 0.0
2017-Oct-12 01:31N 45°36' W 122°46'0 0.1
2017-Oct-12 00:57N 45°36' W 122°47'0 0.0
2017-Oct-11 23:45N 45°36' W 122°46'0 0.0
2017-Oct-11 23:31N 45°36' W 122°46'0 0.0
2017-Oct-11 22:57N 45°36' W 122°46'0 0.1
2017-Oct-11 22:19N 45°36' W 122°47'0 0.0
2017-Oct-11 21:51N 45°36' W 122°47'0 0.0
2017-Oct-11 21:27N 45°36' W 122°47'0 0.0
2017-Oct-11 20:58N 45°36' W 122°47'0 0.0
2017-Oct-11 20:27N 45°36' W 122°47'0 0.0
2017-Oct-11 19:57N 45°36' W 122°47'0 0.0
2017-Oct-11 19:30N 45°36' W 122°47'0 0.0
2017-Oct-11 19:00N 45°36' W 122°47'0 0.0
2017-Oct-11 18:12N 45°36' W 122°47'0 0.0
2017-Oct-11 17:51N 45°36' W 122°47'0 0.0
2017-Oct-11 17:30N 45°36' W 122°47'0 0.0
2017-Oct-11 16:54N 45°36' W 122°47'0 0.0
2017-Oct-10 23:57N 45°36' W 122°46'0 0.0
2017-Oct-10 23:21N 45°36' W 122°46'0 0.2
2017-Oct-10 22:39N 45°36' W 122°47'0 0.8
2017-Oct-10 22:30N 45°36' W 122°47'3 6.2
2017-Oct-10 22:00N 45°39' W 122°46'2 3.7
2017-Oct-10 21:29N 45°41' W 122°46'0 0.0
2017-Oct-10 20:59N 45°41' W 122°46'0 0.0
2017-Oct-10 20:29N 45°41' W 122°46'0 0.0
2017-Oct-10 19:59N 45°41' W 122°46'0 0.1
2017-Oct-10 19:29N 45°41' W 122°46'0 0.0
2017-Oct-10 18:56N 45°41' W 122°46'0 0.0
2017-Oct-10 18:29N 45°41' W 122°46'0 0.1
2017-Oct-10 17:53N 45°41' W 122°46'0 0.0
2017-Oct-10 17:29N 45°41' W 122°46'0 0.2
2017-Oct-10 17:00N 45°41' W 122°46'3 5.8
2017-Oct-10 16:31N 45°44' W 122°46'612.4
2017-Oct-10 16:00N 45°50' W 122°48'712.8
2017-Oct-10 15:26N 45°57' W 122°49'511.9
2017-Oct-10 15:00N 46°02' W 122°52'1111.4
2017-Oct-10 14:00N 46°10' W 123°04'612.0
2017-Oct-10 13:30N 46°10' W 123°13'612.7
2017-Oct-10 13:01N 46°09' W 123°21'810.8
2017-Oct-10 12:15N 46°16' W 123°27'310.4
2017-Oct-10 12:00N 46°16' W 123°31'713.7
2017-Oct-10 11:30N 46°15' W 123°41'713.1
2017-Oct-10 11:00N 46°12' W 123°49'612.8
2017-Oct-10 10:31N 46°13' W 123°58'612.2
2017-Oct-10 10:00N 46°14' W 124°07'811.7
2017-Oct-10 09:18N 46°11' W 124°18'4 9.8
2017-Oct-10 08:51N 46°11' W 124°24'3 7.6
2017-Oct-10 08:30N 46°11' W 124°28'3 5.1
2017-Oct-10 08:00N 46°11' W 124°32'1 1.1
2017-Oct-10 07:31N 46°11' W 124°32'1 1.2
2017-Oct-10 07:00N 46°11' W 124°33'1 1.2
2017-Oct-10 06:30N 46°11' W 124°34'1 2.6
2017-Oct-10 05:56N 46°11' W 124°36'0 0.7
2017-Oct-10 05:30N 46°11' W 124°37'611.6
2017-Oct-10 05:00N 46°11' W 124°45'611.6
2017-Oct-10 04:30N 46°10' W 124°53'812.0
2017-Oct-10 03:51N 46°11' W 125°05'512.5
2017-Oct-10 03:29N 46°12' W 125°11'4 8.1
2017-Oct-10 02:56N 46°12' W 125°18'512.2
2017-Oct-10 02:30N 46°12' W 125°25'612.2
2017-Oct-10 02:00N 46°12' W 125°34'1012.2
2017-Oct-10 01:11N 46°12' W 125°49'212.2
2017-Oct-10 01:00N 46°12' W 125°52'51 8.5
2017-Oct-09 19:00N 46°12' W 127°06'26010.8 050 / 451020.0 18.016.413.0
2017-Oct-08 19:00N 47°00' W 133°18'   280 / 71028.0 15.011.613.0
Track history (hours):
 
Tides and Currents Weather Stations Pressure Air Temp Water Temp Dewpoint Dewpoint Depression Visibility Wind Speed Wind Dir Waves Ship Positions

Ansac Moon Bear

Last reported at 2017-Oct-17 22:00 UTC. Time now 2017-Oct-18 02:22 UTC.
Position N 51°48' W 144°30'.

Length 180 m; draft 10.2 m.

Type: Cargo ship. MMSI: 353751000.

Wind from 280 at 17 knots

Barometer 997.0 mb
Air temperature 11.0 ° C
Dewpoint 9.2 ° C
Water temperature 11.0 ° C

Date/timePositionNaut miles runAvg speedWind from/ knotsBaromVisibWave heightAir tempDewpointWater temp
2017-Oct-17 22:00N 51°48' W 144°30'28011.2 280 / 17997.0 11.0 9.211.0
2017-Oct-16 21:00N 49°12' W 138°24'230 9.6 310 / 141007.0 11.0 9.212.0
2017-Oct-15 21:00N 47°06' W 133°36'32811.0 230 / 131020.0 16.014.413.0
2017-Oct-14 15:08N 46°12' W 125°45'211.1
2017-Oct-14 14:59N 46°13' W 125°43'511.3
2017-Oct-14 14:31N 46°12' W 125°35'611.3
2017-Oct-14 14:00N 46°13' W 125°27'611.5
2017-Oct-14 13:30N 46°13' W 125°19'611.7
2017-Oct-14 13:00N 46°13' W 125°10'611.4
2017-Oct-14 12:31N 46°13' W 125°02'611.5
2017-Oct-14 12:01N 46°13' W 124°54'611.4
2017-Oct-14 11:30N 46°13' W 124°45'611.3
2017-Oct-14 11:01N 46°13' W 124°37'611.3
2017-Oct-14 10:31N 46°13' W 124°29'611.7
2017-Oct-14 10:01N 46°13' W 124°21'612.0
2017-Oct-14 09:31N 46°12' W 124°12'510.2
2017-Oct-14 09:01N 46°15' W 124°06'612.5
2017-Oct-14 08:31N 46°13' W 123°57'611.5
2017-Oct-14 08:00N 46°12' W 123°49'612.3
2017-Oct-14 07:30N 46°15' W 123°41'713.2
2017-Oct-14 07:01N 46°16' W 123°32'510.1
2017-Oct-14 06:30N 46°13' W 123°25'5 9.7
2017-Oct-14 06:00N 46°09' W 123°22'611.4
2017-Oct-14 05:30N 46°10' W 123°14'5 9.8
2017-Oct-14 05:00N 46°11' W 123°07'611.1
2017-Oct-14 04:27N 46°08' W 122°60'4 9.1
2017-Oct-14 04:00N 46°05' W 122°55'6 9.8
2017-Oct-14 03:21N 45°60' W 122°51'411.2
2017-Oct-14 03:01N 45°56' W 122°48'611.8
2017-Oct-14 02:30N 45°50' W 122°47'612.1
2017-Oct-14 02:00N 45°44' W 122°46'611.2
2017-Oct-14 01:30N 45°39' W 122°46'3 5.1
2017-Oct-14 01:00N 45°36' W 122°47'0 0.6
2017-Oct-14 00:13N 45°36' W 122°46'0 0.0
2017-Oct-13 23:58N 45°36' W 122°46'0 0.0
2017-Oct-13 23:28N 45°36' W 122°46'0 0.0
2017-Oct-13 22:58N 45°36' W 122°46'0 0.0
2017-Oct-13 22:28N 45°36' W 122°46'0 0.0
2017-Oct-13 21:58N 45°36' W 122°46'0 0.0
2017-Oct-13 21:13N 45°36' W 122°46'0 0.0
2017-Oct-13 20:58N 45°36' W 122°46'0 0.0
2017-Oct-13 20:28N 45°36' W 122°46'0 0.0
2017-Oct-13 19:55N 45°36' W 122°46'0 0.0
2017-Oct-13 19:28N 45°36' W 122°46'0 0.0
2017-Oct-13 18:49N 45°36' W 122°46'0 0.0
2017-Oct-13 18:19N 45°36' W 122°46'0 0.0
2017-Oct-13 17:55N 45°36' W 122°46'0 0.0
2017-Oct-13 17:10N 45°36' W 122°46'0 0.0
2017-Oct-13 16:55N 45°36' W 122°46'0 0.0
2017-Oct-13 16:25N 45°36' W 122°46'0 0.0
2017-Oct-13 15:52N 45°36' W 122°46'0 0.0
2017-Oct-13 15:28N 45°36' W 122°46'0 0.0
2017-Oct-13 14:58N 45°36' W 122°46'0 0.0
2017-Oct-13 14:22N 45°36' W 122°46'0 0.0
2017-Oct-13 13:49N 45°36' W 122°46'0 0.0
2017-Oct-13 13:28N 45°36' W 122°46'0 0.0
2017-Oct-13 12:43N 45°36' W 122°46'0 0.0
2017-Oct-13 12:28N 45°36' W 122°46'0 0.0
2017-Oct-13 11:55N 45°36' W 122°46'0 0.0
2017-Oct-13 11:28N 45°36' W 122°46'0 0.0
2017-Oct-13 10:52N 45°36' W 122°46'0 0.0
2017-Oct-13 10:28N 45°36' W 122°46'0 0.0
2017-Oct-13 09:52N 45°36' W 122°46'0 0.0
2017-Oct-13 09:01N 45°36' W 122°46'0 0.0
2017-Oct-13 08:58N 45°36' W 122°46'0 0.1
2017-Oct-13 08:13N 45°36' W 122°47'0 0.0
2017-Oct-13 07:49N 45°36' W 122°47'0 0.0
2017-Oct-13 07:22N 45°36' W 122°47'0 0.0
2017-Oct-13 06:58N 45°36' W 122°47'0 0.0
2017-Oct-13 06:22N 45°36' W 122°47'0 0.0
2017-Oct-13 05:55N 45°36' W 122°47'0 0.0
2017-Oct-13 05:31N 45°36' W 122°47'0 0.0
2017-Oct-13 04:58N 45°36' W 122°47'0 0.0
2017-Oct-13 04:28N 45°36' W 122°47'0 0.0
2017-Oct-13 03:58N 45°36' W 122°47'0 0.0
2017-Oct-13 03:27N 45°36' W 122°47'0 0.0
2017-Oct-13 02:58N 45°36' W 122°47'0 0.0
2017-Oct-13 02:19N 45°36' W 122°47'0 0.0
2017-Oct-13 01:55N 45°36' W 122°47'0 0.0
2017-Oct-13 01:31N 45°36' W 122°47'0 0.0
2017-Oct-13 00:58N 45°36' W 122°47'0 0.0
2017-Oct-13 00:28N 45°36' W 122°47'0 0.0
2017-Oct-12 23:52N 45°36' W 122°47'0 0.0
2017-Oct-12 23:22N 45°36' W 122°47'0 0.0
2017-Oct-12 22:46N 45°36' W 122°47'0 0.0
2017-Oct-12 22:28N 45°36' W 122°47'0 0.0
2017-Oct-12 22:01N 45°36' W 122°47'0 0.0
2017-Oct-12 21:28N 45°36' W 122°47'0 0.1
2017-Oct-12 20:55N 45°36' W 122°46'0 0.1
2017-Oct-12 20:28N 45°36' W 122°47'0 0.0
2017-Oct-12 20:01N 45°36' W 122°47'0 0.1
2017-Oct-12 19:25N 45°36' W 122°46'0 0.0
2017-Oct-12 19:01N 45°36' W 122°46'0 0.1
2017-Oct-12 18:31N 45°36' W 122°47'0 0.0
2017-Oct-12 17:34N 45°36' W 122°46'0 0.1
2017-Oct-12 17:31N 45°36' W 122°46'0 0.0
2017-Oct-12 16:55N 45°36' W 122°46'0 0.1
2017-Oct-12 16:31N 45°36' W 122°47'0 0.1
2017-Oct-12 15:58N 45°36' W 122°46'0 0.0
2017-Oct-12 15:31N 45°36' W 122°46'0 0.0
2017-Oct-12 14:55N 45°36' W 122°46'0 0.0
2017-Oct-12 14:28N 45°36' W 122°46'0 0.1
2017-Oct-12 13:52N 45°36' W 122°47'0 0.0
2017-Oct-12 13:18N 45°36' W 122°47'0 0.1
2017-Oct-12 12:55N 45°36' W 122°46'0 0.1
2017-Oct-12 12:31N 45°36' W 122°47'0 0.1
2017-Oct-12 11:52N 45°36' W 122°46'0 0.0
2017-Oct-12 11:30N 45°36' W 122°46'0 0.0
2017-Oct-12 10:55N 45°36' W 122°46'0 0.0
2017-Oct-12 10:27N 45°36' W 122°46'0 0.0
2017-Oct-12 09:46N 45°36' W 122°46'0 0.0
2017-Oct-12 09:27N 45°36' W 122°46'0 0.1
2017-Oct-12 08:54N 45°36' W 122°47'0 0.1
2017-Oct-12 08:25N 45°36' W 122°46'0 0.0
2017-Oct-12 07:43N 45°36' W 122°46'0 0.2
2017-Oct-12 07:30N 45°36' W 122°47'0 0.1
2017-Oct-12 06:55N 45°36' W 122°46'0 0.0
2017-Oct-12 06:30N 45°36' W 122°46'0 0.0
2017-Oct-12 06:00N 45°36' W 122°46'0 0.0
2017-Oct-12 05:25N 45°36' W 122°46'0 0.1
2017-Oct-12 04:52N 45°36' W 122°47'0 0.0
2017-Oct-12 04:31N 45°36' W 122°47'0 0.1
2017-Oct-12 03:58N 45°36' W 122°46'0 0.0
2017-Oct-12 03:30N 45°36' W 122°46'0 0.1
2017-Oct-12 02:58N 45°36' W 122°47'0 0.1
2017-Oct-12 02:30N 45°36' W 122°46'0 0.0
2017-Oct-12 01:55N 45°36' W 122°46'0 0.0
2017-Oct-12 01:31N 45°36' W 122°46'0 0.1
2017-Oct-12 00:57N 45°36' W 122°47'0 0.0
2017-Oct-11 23:45N 45°36' W 122°46'0 0.0
2017-Oct-11 23:31N 45°36' W 122°46'0 0.0
2017-Oct-11 22:57N 45°36' W 122°46'0 0.1
2017-Oct-11 22:19N 45°36' W 122°47'0 0.0
2017-Oct-11 21:51N 45°36' W 122°47'0 0.0
2017-Oct-11 21:27N 45°36' W 122°47'0 0.0
2017-Oct-11 20:58N 45°36' W 122°47'0 0.0
2017-Oct-11 20:27N 45°36' W 122°47'0 0.0
2017-Oct-11 19:57N 45°36' W 122°47'0 0.0
2017-Oct-11 19:30N 45°36' W 122°47'0 0.0
2017-Oct-11 19:00N 45°36' W 122°47'0 0.0
2017-Oct-11 18:12N 45°36' W 122°47'0 0.0
2017-Oct-11 17:51N 45°36' W 122°47'0 0.0
2017-Oct-11 17:30N 45°36' W 122°47'0 0.0
2017-Oct-11 16:54N 45°36' W 122°47'0 0.0
2017-Oct-10 23:57N 45°36' W 122°46'0 0.0
2017-Oct-10 23:21N 45°36' W 122°46'0 0.2
2017-Oct-10 22:39N 45°36' W 122°47'0 0.8
2017-Oct-10 22:30N 45°36' W 122°47'3 6.2
2017-Oct-10 22:00N 45°39' W 122°46'2 3.7
2017-Oct-10 21:29N 45°41' W 122°46'0 0.0
2017-Oct-10 20:59N 45°41' W 122°46'0 0.0
2017-Oct-10 20:29N 45°41' W 122°46'0 0.0
2017-Oct-10 19:59N 45°41' W 122°46'0 0.1
2017-Oct-10 19:29N 45°41' W 122°46'0 0.0
2017-Oct-10 18:56N 45°41' W 122°46'0 0.0
2017-Oct-10 18:29N 45°41' W 122°46'0 0.1
2017-Oct-10 17:53N 45°41' W 122°46'0 0.0
2017-Oct-10 17:29N 45°41' W 122°46'0 0.2
2017-Oct-10 17:00N 45°41' W 122°46'3 5.8
2017-Oct-10 16:31N 45°44' W 122°46'612.4
2017-Oct-10 16:00N 45°50' W 122°48'712.8
2017-Oct-10 15:26N 45°57' W 122°49'511.9
2017-Oct-10 15:00N 46°02' W 122°52'1111.4
2017-Oct-10 14:00N 46°10' W 123°04'612.0
2017-Oct-10 13:30N 46°10' W 123°13'612.7
2017-Oct-10 13:01N 46°09' W 123°21'810.8
2017-Oct-10 12:15N 46°16' W 123°27'310.4
2017-Oct-10 12:00N 46°16' W 123°31'713.7
2017-Oct-10 11:30N 46°15' W 123°41'713.1
2017-Oct-10 11:00N 46°12' W 123°49'612.8
2017-Oct-10 10:31N 46°13' W 123°58'612.2
2017-Oct-10 10:00N 46°14' W 124°07'811.7
2017-Oct-10 09:18N 46°11' W 124°18'4 9.8
2017-Oct-10 08:51N 46°11' W 124°24'3 7.6
2017-Oct-10 08:30N 46°11' W 124°28'3 5.1
2017-Oct-10 08:00N 46°11' W 124°32'1 1.1
2017-Oct-10 07:31N 46°11' W 124°32'1 1.2
2017-Oct-10 07:00N 46°11' W 124°33'1 1.2
2017-Oct-10 06:30N 46°11' W 124°34'1 2.6
2017-Oct-10 05:56N 46°11' W 124°36'0 0.7
2017-Oct-10 05:30N 46°11' W 124°37'611.6
2017-Oct-10 05:00N 46°11' W 124°45'611.6
2017-Oct-10 04:30N 46°10' W 124°53'812.0
2017-Oct-10 03:51N 46°11' W 125°05'512.5
2017-Oct-10 03:29N 46°12' W 125°11'4 8.1
2017-Oct-10 02:56N 46°12' W 125°18'512.2
2017-Oct-10 02:30N 46°12' W 125°25'612.2
2017-Oct-10 02:00N 46°12' W 125°34'1012.2
2017-Oct-10 01:11N 46°12' W 125°49'212.2
2017-Oct-10 01:00N 46°12' W 125°52'51 8.5
2017-Oct-09 19:00N 46°12' W 127°06'26010.8 050 / 451020.0 18.016.413.0
2017-Oct-08 19:00N 47°00' W 133°18'   280 / 71028.0 15.011.613.0

Dump ship's entire track history